createdAt,value
2023-03-17T05:21:19.201Z,10.80
2023-03-17T05:24:22.148Z,10.27
2023-03-17T05:27:24.770Z,9.98
2023-03-17T05:30:31.571Z,9.88
2023-03-17T05:33:34.906Z,11.15
2023-03-17T05:36:37.650Z,10.10
2023-03-17T05:39:40.476Z,9.73
2023-03-17T05:42:43.095Z,9.82
2023-03-17T05:45:47.417Z,11.70
2023-03-17T05:48:50.027Z,10.63
2023-03-17T05:51:52.594Z,10.98
2023-03-17T05:54:55.360Z,10.35
2023-03-17T05:57:58.112Z,11.55
2023-03-17T06:01:01.239Z,9.75
2023-03-17T06:04:05.109Z,8.88
2023-03-17T06:07:09.592Z,8.93
2023-03-17T06:10:12.419Z,8.47
2023-03-17T06:13:15.544Z,7.30
2023-03-17T06:16:18.400Z,7.45
2023-03-17T06:19:21.157Z,9.15
2023-03-17T06:22:23.660Z,8.25
2023-03-17T06:25:27.368Z,7.80
2023-03-17T06:28:29.956Z,6.60
2023-03-17T06:31:32.495Z,6.68
2023-03-17T06:34:34.979Z,8.32
2023-03-17T06:37:37.544Z,6.90
2023-03-17T06:40:40.076Z,6.90
2023-03-17T06:43:42.636Z,6.18
2023-03-17T06:46:45.284Z,6.03
2023-03-17T06:49:48.066Z,7.03
2023-03-17T06:52:51.693Z,8.20
2023-03-17T06:55:54.200Z,8.73
2023-03-17T06:58:56.863Z,5.90
2023-03-17T07:02:00.530Z,6.05
2023-03-17T07:05:04.661Z,5.15
2023-03-17T07:08:07.475Z,4.45
2023-03-17T07:11:10.045Z,3.80
2023-03-17T07:14:13.956Z,4.12
2023-03-17T07:17:16.564Z,3.78
2023-03-17T07:20:19.221Z,3.70
2023-03-17T07:23:23.017Z,4.53
2023-03-17T07:26:25.707Z,4.32
2023-03-17T07:29:29.375Z,5.03
2023-03-17T07:32:33.545Z,4.32
2023-03-17T07:35:36.345Z,4.90
2023-03-17T07:38:38.975Z,4.93
2023-03-17T07:41:41.490Z,5.05
2023-03-17T07:44:44.278Z,4.50
2023-03-17T07:47:46.970Z,4.40
2023-03-17T07:50:49.510Z,5.10
2023-03-17T07:53:52.079Z,4.10
2023-03-17T07:56:54.994Z,3.87
2023-03-17T07:59:57.918Z,3.80
2023-03-17T08:03:09.841Z,3.72
2023-03-17T08:06:13.384Z,3.53
2023-03-17T08:09:16.018Z,3.70
2023-03-17T08:12:18.854Z,4.00
2023-03-17T08:15:22.164Z,3.60
2023-03-17T08:18:24.758Z,3.90
2023-03-17T08:21:27.533Z,3.37
2023-03-17T08:24:30.312Z,3.10
2023-03-17T08:27:34.004Z,3.45
2023-03-17T08:30:38.805Z,3.05
2023-03-17T08:33:42.596Z,3.45
2023-03-17T08:36:45.257Z,2.60
2023-03-17T08:39:47.980Z,2.47
2023-03-17T08:42:50.847Z,2.37
2023-03-17T08:45:54.087Z,2.50
2023-03-17T08:48:57.150Z,2.20
2023-03-17T08:51:59.786Z,2.60
2023-03-17T08:55:02.691Z,2.42
2023-03-17T08:58:05.559Z,2.50
2023-03-17T09:01:10.183Z,3.60
2023-03-17T09:04:12.880Z,3.47
2023-03-17T09:07:15.380Z,3.08
2023-03-17T09:10:22.725Z,2.30
2023-03-17T09:13:25.807Z,2.55
2023-03-17T09:16:28.913Z,2.90
2023-03-17T09:19:32.536Z,2.58
2023-03-17T09:22:35.078Z,3.05
2023-03-17T09:25:38.533Z,2.47
2023-03-17T09:28:41.061Z,2.62
2023-03-17T09:31:43.942Z,2.72
2023-03-17T09:34:46.570Z,2.80
2023-03-17T09:37:49.193Z,2.62
2023-03-17T09:41:05.328Z,3.40
2023-03-17T09:44:19.566Z,2.50
2023-03-17T09:47:31.203Z,3.20
2023-03-17T09:50:42.955Z,2.72
2023-03-17T09:54:00.600Z,2.90
2023-03-17T09:57:27.511Z,2.78
2023-03-17T10:00:31.414Z,3.03
2023-03-17T10:03:34.292Z,3.00
2023-03-17T10:06:43.867Z,2.90
2023-03-17T10:09:53.732Z,3.05
2023-03-17T10:13:18.029Z,2.95
2023-03-17T10:17:07.123Z,3.05
2023-03-17T10:20:16.066Z,2.90
2023-03-17T10:23:25.404Z,2.97
2023-03-17T10:26:42.604Z,2.75
2023-03-17T10:29:54.206Z,2.95
2023-03-17T10:32:57.596Z,2.65
2023-03-17T10:36:09.248Z,2.95
2023-03-17T10:39:14.615Z,3.03
2023-03-17T10:45:29.635Z,2.83
2023-03-17T10:48:36.545Z,3.87
2023-03-17T10:51:40.689Z,3.90
2023-03-17T10:54:47.280Z,3.75
2023-03-17T10:57:52.365Z,2.85
2023-03-17T11:01:07.882Z,2.90
2023-03-17T11:07:34.745Z,2.55
2023-03-17T11:10:39.529Z,2.40
2023-03-17T11:13:42.372Z,3.20
2023-03-17T11:16:59.371Z,3.08
2023-03-17T11:20:31.821Z,3.70
2023-03-17T11:23:47.891Z,3.35
2023-03-17T11:26:58.828Z,3.60
2023-03-17T11:30:11.902Z,3.53
2023-03-17T11:33:35.673Z,3.47
2023-03-17T11:36:46.387Z,3.20
2023-03-17T11:40:12.669Z,3.10
2023-03-17T11:43:15.138Z,2.80
2023-03-17T11:46:31.151Z,3.50
2023-03-17T11:49:37.973Z,3.97
2023-03-17T11:53:05.606Z,3.10
2023-03-17T11:56:14.067Z,3.10
2023-03-17T11:59:39.072Z,3.28
2023-03-17T12:02:58.154Z,3.90
2023-03-17T12:06:11.014Z,2.97
2023-03-17T12:10:01.378Z,2.95
2023-03-17T12:13:24.318Z,4.28
2023-03-17T12:16:29.771Z,2.92
2023-03-17T12:19:46.049Z,3.17
2023-03-17T12:22:56.684Z,3.00
2023-03-17T12:26:08.899Z,2.70
2023-03-17T12:29:14.482Z,2.95
2023-03-17T12:32:24.970Z,3.62
2023-03-17T12:35:28.209Z,2.97
2023-03-17T12:38:38.652Z,2.87
2023-03-17T12:42:02.538Z,3.22
2023-03-17T12:45:26.495Z,3.50
2023-03-17T12:48:51.318Z,3.45
2023-03-17T12:52:24.639Z,3.10
2023-03-17T12:55:27.515Z,4.35
2023-03-17T12:58:33.073Z,2.80
2023-03-17T13:01:39.308Z,3.33
2023-03-17T13:04:49.123Z,3.33
2023-03-17T13:07:54.670Z,3.65
2023-03-17T13:11:21.328Z,8.88
2023-03-17T13:14:29.637Z,3.70
2023-03-17T13:17:36.244Z,3.37
2023-03-17T13:21:02.664Z,3.72
2023-03-17T13:24:18.717Z,4.32
2023-03-17T13:27:31.054Z,3.10
2023-03-17T13:30:36.632Z,3.00
2023-03-17T13:33:44.810Z,2.95
2023-03-17T13:37:25.944Z,3.03
2023-03-17T13:40:52.642Z,3.30
2023-03-17T13:44:10.584Z,2.78
2023-03-17T13:47:25.484Z,2.67
2023-03-17T13:50:31.580Z,3.67
2023-03-17T13:53:56.600Z,4.18
2023-03-17T13:57:19.813Z,3.00
2023-03-17T14:00:24.536Z,3.60
2023-03-17T14:03:56.756Z,3.12
2023-03-17T14:07:00.729Z,4.55
2023-03-17T14:10:05.571Z,6.97
2023-03-17T14:13:27.985Z,4.68
2023-03-17T14:16:32.485Z,3.05
2023-03-17T14:19:35.151Z,3.37
2023-03-17T14:22:44.840Z,3.58
2023-03-17T14:25:47.862Z,3.92
2023-03-17T14:28:50.554Z,2.97
2023-03-17T14:32:07.155Z,4.00
2023-03-17T14:35:13.231Z,4.55
2023-03-17T14:38:20.805Z,3.70
2023-03-17T14:41:24.554Z,3.22
2023-03-17T14:44:27.238Z,6.05
2023-03-17T14:47:29.862Z,15.55
2023-03-17T14:50:32.539Z,4.70
2023-03-17T14:53:36.289Z,4.25
2023-03-17T14:56:43.022Z,3.75
2023-03-17T14:59:57.485Z,3.83
2023-03-17T15:03:03.141Z,3.22
2023-03-17T15:06:23.235Z,4.12
2023-03-17T15:09:28.618Z,3.55
2023-03-17T15:15:37.987Z,4.80
2023-03-17T15:18:40.700Z,3.87
2023-03-17T15:21:43.414Z,3.62
2023-03-17T15:24:46.265Z,4.20
2023-03-17T15:27:48.996Z,4.60
2023-03-17T15:30:52.867Z,4.57
2023-03-17T15:33:55.757Z,9.75
2023-03-17T15:36:58.388Z,4.57
2023-03-17T15:40:01.565Z,3.50
2023-03-17T15:43:04.095Z,7.22
2023-03-17T15:46:16.409Z,5.97
2023-03-17T15:49:19.108Z,6.47
2023-03-17T15:52:25.245Z,5.43
2023-03-17T15:55:33.080Z,6.15
2023-03-17T15:58:35.658Z,4.07
2023-03-17T16:01:38.409Z,4.75
2023-03-17T16:04:41.141Z,4.55
2023-03-17T16:07:44.092Z,4.37
2023-03-17T16:10:47.105Z,5.47
2023-03-17T16:13:49.656Z,6.87
2023-03-17T16:16:52.211Z,4.65
